Latest Weather Observations for Tibooburra Airport

IDN60801

Issued at 1:35 pm EST Friday 19 September 2014 (issued every 30 minutes, with the page automatically refreshed every 10 minutes)

About weather observations | Map of weather stations | Latest weather observations for NSW | Other Formats
Station Details ID: 046126 Name: TIBOOBURRA AIRPORT Lat: -29.44 Lon: 142.06 Height: 176.4 m
Data from the previous 72 hours. | See also: Recent months for locations in New South Wales
Date/Time
EST
Temp
°C
App
Temp
°C
Dew
Point
Rel
Hum
%
Delta-T
°C
Wind Press
QNH
hPa
Press
MSL
hPa
Rain
since 9 am
mm
Dir
 
Spd
km/h
Gust
km/h
Spd
kts
Gust
kts
19/01:30pm 20.6 16.1 -0.1 25 9.2 SSE 13 24 7 13 1022.3 1021.8 0.0
19/01:00pm 20.4 15.9 -0.3 25 9.2 SE 13 22 7 12 1022.7 1022.3 0.0
19/12:30pm 19.9 14.7 0.4 27 8.8 SE 17 24 9 13 1023.1 1022.7 0.0
19/12:00pm 19.5 15.0 0.0 27 8.6 SE 13 22 7 12 1023.3 1022.9 0.0
19/11:30am 19.1 13.5 0.2 28 8.4 SSE 19 26 10 14 1023.7 1023.3 0.0
19/11:00am 18.5 12.7 0.2 29 8.0 SE 20 26 11 14 1024.0 1023.6 0.0
19/10:30am 18.5 12.7 -0.3 28 8.2 SE 20 28 11 15 1024.2 1023.8 0.0
19/10:00am 18.4 13.3 0.5 30 7.9 SE 17 22 9 12 1024.5 1024.1 0.0
19/09:30am 16.7 11.4 -0.5 31 7.4 SE 17 24 9 13 1024.5 1024.1 0.0
19/09:00am 15.9 11.0 -0.3 33 6.9 SE 15 22 8 12 1024.4 1024.0 0.0
19/08:30am 15.4 10.5 -0.4 34 6.7 ESE 15 19 8 10 1024.3 1023.9 0.0
19/08:00am 13.7 9.6 -0.3 38 5.8 SE 11 15 6 8 1023.9 1023.5 0.0
19/07:30am 13.0 8.7 0.7 43 5.2 SSE 13 17 7 9 1023.6 1023.2 0.0
19/07:00am 12.7 8.3 0.5 43 5.1 SE 13 17 7 9 1023.0 1022.6 0.0
19/06:30am 12.4 8.0 0.5 44 5.0 SE 13 15 7 8 1022.9 1022.5 0.0
19/06:00am 12.5 8.5 0.6 44 5.0 ESE 11 15 6 8 1022.7 1022.3 0.0
19/05:30am 12.6 8.6 0.4 43 5.1 ESE 11 13 6 7 1022.7 1022.3 0.0
19/05:00am 13.0 8.7 0.7 43 5.2 ESE 13 19 7 10 1022.3 1021.8 0.0
19/04:30am 13.2 8.8 0.6 42 5.4 SE 13 17 7 9 1022.0 1021.6 0.0
19/04:00am 13.4 8.6 0.4 41 5.5 SE 15 22 8 12 1021.8 1021.4 0.0
19/03:30am 13.6 8.9 0.6 41 5.5 SE 15 20 8 11 1021.8 1021.4 0.0
19/03:00am 13.8 8.1 0.5 40 5.6 SE 20 28 11 15 1021.6 1021.2 0.0
19/02:30am 13.9 8.3 0.9 41 5.6 SE 20 26 11 14 1021.9 1021.5 0.0
19/02:00am 14.1 8.4 0.7 40 5.7 SE 20 26 11 14 1022.6 1022.1 0.0
19/01:30am 14.0 9.5 -0.1 38 5.9 S 13 22 7 12 1022.8 1022.4 0.0
19/01:00am 12.9 9.1 -1.1 38 5.7 SW 9 11 5 6 1022.9 1022.5 0.0
19/12:30am 12.3 8.4 -1.2 39 5.5 SW 9 9 5 5 1023.1 1022.7 0.0
19/12:00am 11.8 7.1 -1.7 39 5.3 SW 13 19 7 10 1023.1 1022.7 0.0
 
Date/Time
EST
Temp
°C
App
Temp
°C
Dew
Point
Rel
Hum
%
Delta-T
°C
Wind Press
QNH
hPa
Press
MSL
hPa
Rain
since 9 am
mm
Dir
 
Spd
km/h
Gust
km/h
Spd
kts
Gust
kts
18/11:30pm 13.5 11.4 -0.9 37 5.9 CALM 0 0 0 0 1023.2 1022.8 0.0
18/11:00pm 13.1 9.8 -1.2 37 5.8 S 6 7 3 4 1023.4 1023.0 0.0
18/10:30pm 12.8 9.4 -1.9 36 5.9 SSE 6 6 3 3 1023.4 1023.0 0.0
18/10:00pm 14.6 10.8 -1.1 34 6.5 E 9 9 5 5 1023.3 1022.9 0.0
18/09:30pm 14.8 10.5 -1.3 33 6.7 E 11 11 6 6 1023.0 1022.6 0.0
18/09:00pm 15.3 11.9 -0.9 33 6.8 E 7 9 4 5 1023.4 1023.0 0.0
18/08:30pm 15.2 10.9 -1.4 32 6.8 SE 11 11 6 6 1023.1 1022.7 0.0
18/08:00pm 15.5 11.3 -1.1 32 6.9 ESE 11 13 6 7 1022.6 1022.1 0.0
18/07:30pm 16.1 11.9 -1.0 31 7.2 ESE 11 13 6 7 1022.2 1021.7 0.0
18/07:00pm 17.1 12.9 -1.1 29 7.7 ESE 11 13 6 7 1022.0 1021.6 0.0
18/06:30pm 18.2 13.7 -0.6 28 8.1 SE 13 17 7 9 1021.6 1021.2 0.0
18/06:00pm 19.1 14.2 -0.3 27 8.5 SE 15 22 8 12 1021.8 1021.4 0.0
18/05:30pm 19.7 15.5 -0.9 25 9.0 SSE 11 15 6 8 1021.8 1021.4 0.0
18/05:00pm 20.0 15.5 -0.6 25 9.0 SSE 13 20 7 11 1021.5 1021.1 0.0
18/04:30pm 19.9 16.5 -0.7 25 9.0 E 7 13 4 7 1021.1 1020.7 0.0
18/04:00pm 20.1 16.0 -0.5 25 9.1 S 11 19 6 10 1021.0 1020.6 0.0
18/03:30pm 19.7 15.9 -0.9 25 9.0 SSW 9 20 5 11 1021.1 1020.7 0.0
18/03:00pm 20.1 16.3 -0.5 25 9.1 ESE 9 20 5 11 1021.6 1021.2 0.0
18/02:30pm 20.4 14.6 -0.3 25 9.2 SSE 20 26 11 14 1021.9 1021.5 0.0
18/02:00pm 19.5 15.4 -0.5 26 8.8 ESE 11 22 6 12 1022.4 1021.9 0.0
18/01:30pm 19.5 14.2 -0.5 26 8.8 SSE 17 24 9 13 1022.9 1022.5 0.0
18/01:00pm 19.4 13.7 -0.6 26 8.7 ESE 19 30 10 16 1023.4 1023.0 0.0
18/12:30pm 19.0 15.2 -0.4 27 8.5 SSE 9 19 5 10 1024.0 1023.6 0.0
18/12:00pm 19.2 15.2 0.3 28 8.4 S 11 19 6 10 1024.2 1023.8 0.0
18/11:30am 18.3 13.5 0.0 29 8.0 ESE 15 20 8 11 1024.7 1024.3 0.0
18/11:00am 18.1 14.1 0.3 30 7.8 ESE 11 20 6 11 1024.8 1024.4 0.0
18/10:30am 18.1 12.8 1.6 33 7.5 ESE 19 26 10 14 1024.9 1024.5 0.0
18/10:00am 16.9 11.9 1.4 35 6.9 SE 17 26 9 14 1025.3 1024.9 0.0
18/09:30am 15.3 10.7 1.4 39 6.1 SE 15 20 8 11 1025.6 1025.2 0.0
18/09:00am 14.2 9.2 1.2 41 5.6 SSE 17 20 9 11 1025.6 1025.2 0.0
18/08:30am 13.5 8.1 1.2 43 5.3 SSE 19 24 10 13 1025.4 1025.0 0.0
18/08:00am 12.6 8.7 1.0 45 4.9 S 11 20 6 11 1025.0 1024.6 0.0
18/07:30am 10.3 6.5 -1.1 45 4.5 SW 9 13 5 7 1024.9 1024.5 0.0
18/07:00am 8.5 4.6 -1.6 49 3.9 WSW 9 11 5 6 1024.1 1023.7 0.0
18/06:30am 7.5 3.5 -2.0 51 3.6 SW 9 13 5 7 1024.0 1023.6 0.0
18/06:00am 8.6 5.1 -1.5 49 3.9 SW 7 9 4 5 1023.4 1023.0 0.0
18/05:30am 8.6 5.2 -1.8 48 4.0 SW 6 9 3 5 1023.1 1022.7 0.0
18/05:00am 8.8 4.8 -1.9 47 4.1 W 9 11 5 6 1022.9 1022.5 0.0
18/04:30am 9.4 6.1 -1.6 46 4.3 WSW 6 9 3 5 1022.6 1022.1 0.0
18/04:00am 9.2 5.6 -2.1 45 4.3 W 7 9 4 5 1022.5 1022.0 0.0
18/03:30am 9.6 5.6 -2.0 44 4.5 SW 9 11 5 6 1022.4 1021.9 0.0
18/03:00am 9.6 5.2 -2.3 43 4.5 W 11 13 6 7 1022.8 1022.4 0.0
18/02:30am 10.0 6.0 -2.6 41 4.8 W 9 13 5 7 1022.9 1022.5 0.0
18/02:00am 10.3 6.7 -2.4 41 4.9 WSW 7 11 4 6 1022.9 1022.5 0.0
18/01:30am 10.6 6.5 -2.8 39 5.1 SW 9 13 5 7 1022.8 1022.4 0.0
18/01:00am 11.3 7.8 -2.8 37 5.4 SSW 6 9 3 5 1023.0 1022.6 0.0
18/12:30am 11.8 7.8 -2.4 37 5.6 SW 9 11 5 6 1023.1 1022.7 0.0
18/12:00am 11.8 7.7 -2.8 36 5.6 SW 9 9 5 5 1023.1 1022.7 0.0
 
Date/Time
EST
Temp
°C
App
Temp
°C
Dew
Point
Rel
Hum
%
Delta-T
°C
Wind Press
QNH
hPa
Press
MSL
hPa
Rain
since 9 am
mm
Dir
 
Spd
km/h
Gust
km/h
Spd
kts
Gust
kts
17/11:30pm 12.7 8.6 -2.7 34 6.0 SW 9 13 5 7 1023.1 1022.7 0.0
17/11:00pm 12.7 9.0 -2.7 34 6.0 SW 7 9 4 5 1022.9 1022.5 0.0
17/10:30pm 13.3 9.3 -2.2 34 6.2 SW 9 13 5 7 1022.8 1022.4 0.0
17/10:00pm 13.4 9.4 -2.5 33 6.3 SSW 9 11 5 6 1022.6 1022.1 0.0
17/09:30pm 14.4 10.4 -2.1 32 6.7 SSW 9 13 5 7 1022.4 1021.9 0.0
17/09:00pm 15.2 10.5 -1.8 31 7.0 S 13 17 7 9 1022.0 1021.6 0.0
17/08:30pm 16.1 10.7 -1.5 30 7.3 SSW 17 20 9 11 1021.6 1021.2 0.0
17/08:00pm 16.8 11.8 -1.3 29 7.6 SSW 15 19 8 10 1021.1 1020.7 0.0
17/07:30pm 17.6 11.9 -1.1 28 8.0 S 19 24 10 13 1020.6 1020.2 0.0
17/07:00pm 18.3 12.3 -1.5 26 8.4 SSW 20 28 11 15 1020.3 1019.9 0.0
17/06:30pm 18.9 12.2 -1.0 26 8.6 SSW 24 32 13 17 1019.9 1019.5 0.0
17/06:00pm 19.9 13.2 -1.2 24 9.1 SSW 24 37 13 20 1019.5 1019.1 0.0
17/05:30pm 20.6 14.0 -0.7 24 9.4 SSW 24 35 13 19 1019.1 1018.7 0.0
17/05:00pm 21.3 14.4 -0.1 24 9.6 SW 26 37 14 20 1018.7 1018.3 0.0
17/04:30pm 21.7 14.6 -0.9 22 10.0 SW 26 39 14 21 1018.5 1018.1 0.0
17/04:00pm 21.5 14.9 -0.5 23 9.8 SW 24 37 13 20 1018.3 1017.9 0.0
17/03:30pm 21.7 16.0 0.3 24 9.7 SW 20 24 11 13 1018.2 1017.8 0.0
17/03:00pm 22.4 15.7 1.4 25 9.8 SSW 26 35 14 19 1018.4 1018.0 0.0
17/02:30pm 21.0 16.3 0.8 26 9.2 S 15 28 8 15 1018.6 1018.2 0.0
17/02:00pm 22.1 15.7 1.2 25 9.7 SSW 24 43 13 23 1018.9 1018.5 0.0
17/01:30pm 20.1 14.0 0.5 27 8.8 WSW 22 32 12 17 1019.1 1018.7 0.0
17/01:00pm 20.2 14.8 1.1 28 8.7 SW 19 26 10 14 1019.4 1019.0 0.0
17/12:30pm 20.6 15.7 2.0 29 8.7 S 17 26 9 14 1019.7 1019.3 0.0
17/12:00pm 20.1 13.5 2.0 30 8.4 S 26 37 14 20 1020.1 1019.7 0.0
17/11:30am 20.4 13.9 2.7 31 8.4 S 26 33 14 18 1020.4 1020.0 0.0
17/11:00am 19.7 13.6 2.6 32 8.0 S 24 33 13 18 1020.6 1020.2 0.0
17/10:30am 19.5 13.9 3.2 34 7.7 S 22 32 12 17 1020.8 1020.4 0.0
17/10:00am 18.8 13.1 2.6 34 7.5 S 22 30 12 16 1020.9 1020.5 0.0
17/09:30am 18.6 12.5 2.9 35 7.3 SSE 24 32 13 17 1020.8 1020.4 0.0
17/09:00am 17.3 11.2 2.9 38 6.6 SSE 24 32 13 17 1020.6 1020.2 -
17/08:30am 15.2 8.0 3.0 44 5.6 SSE 30 39 16 21 1020.4 1020.0 -
17/08:00am 14.3 7.8 2.5 45 5.3 S 26 35 14 19 1020.1 1019.7 -
17/07:30am 13.4 7.6 2.3 47 4.9 S 22 30 12 16 1019.6 1019.2 -
17/07:00am 11.8 6.9 1.7 50 4.3 SSW 17 22 9 12 1019.2 1018.8 -
17/06:30am 10.5 6.2 1.3 53 3.9 SW 13 15 7 8 1018.7 1018.3 -
17/06:00am 10.9 6.2 1.2 51 4.1 SW 15 17 8 9 1018.3 1017.9 -
17/05:30am 11.5 6.8 0.9 48 4.5 SW 15 19 8 10 1017.8 1017.4 -
17/05:00am 11.3 6.6 0.7 48 4.4 WSW 15 19 8 10 1017.6 1017.1 -
17/04:30am 12.1 6.6 0.5 45 4.9 SW 19 22 10 12 1017.2 1016.7 -
17/04:00am 12.1 8.1 0.8 46 4.8 WNW 11 13 6 7 1016.9 1016.4 -
17/03:30am 11.9 7.6 0.7 46 4.7 W 13 15 7 8 1017.3 1016.8 -
17/03:00am 12.0 8.4 0.5 45 4.8 W 9 11 5 6 1017.2 1016.7 0.0
17/02:30am 12.4 8.4 0.5 44 5.0 W 11 11 6 6 1017.4 1016.9 -
17/02:00am 12.4 8.4 0.5 44 5.0 W 11 13 6 7 1017.5 1017.0 -
17/01:30am 13.0 9.4 0.4 42 5.3 W 9 11 5 6 1017.9 1017.5 -
17/01:00am 13.1 9.5 0.8 43 5.2 W 9 11 5 6 1018.2 1017.8 -
17/12:30am 13.3 9.3 0.3 41 5.5 W 11 11 6 6 1018.3 1017.9 -
17/12:00am 13.7 9.7 0.4 40 5.6 W 11 13 6 7 1018.4 1018.0 -
 
Date/Time
EST
Temp
°C
App
Temp
°C
Dew
Point
Rel
Hum
%
Delta-T
°C
Wind Press
QNH
hPa
Press
MSL
hPa
Rain
since 9 am
mm
Dir
 
Spd
km/h
Gust
km/h
Spd
kts
Gust
kts
16/11:30pm 14.0 9.6 0.6 40 5.7 W 13 13 7 7 1018.5 1018.1 -
16/11:00pm 13.7 9.6 0.0 39 5.8 W 11 13 6 7 1018.4 1018.0 -
16/10:30pm 14.2 10.5 0.1 38 6.0 W 9 11 5 6 1018.2 1017.8 -
16/10:00pm 15.2 11.9 0.2 36 6.4 SW 7 7 4 4 1018.1 1017.7 -
16/09:30pm 15.2 11.9 0.2 36 6.4 SW 7 13 4 7 1017.8 1017.4 -
16/09:00pm 15.4 12.1 0.0 35 6.6 SW 7 9 4 5 1017.8 1017.4 0.0
16/08:30pm 16.1 12.0 -0.2 33 7.0 WSW 11 13 6 7 1017.6 1017.1 -
16/08:00pm 17.1 12.6 -0.1 31 7.4 SW 13 17 7 9 1017.2 1016.7 -
16/07:30pm 18.0 13.6 0.2 30 7.8 SW 13 15 7 8 1016.8 1016.3 -
16/07:00pm 19.0 14.6 0.1 28 8.4 SSW 13 17 7 9 1016.3 1015.8 -
16/06:30pm 20.1 14.5 0.0 26 9.0 SW 19 22 10 12 1016.0 1015.6 -
16/06:00pm 21.1 17.1 0.3 25 9.4 SW 11 17 6 9 1015.8 1015.4 -
16/05:30pm 21.5 15.8 0.7 25 9.5 SSW 20 26 11 14 1015.5 1015.1 -
16/05:00pm 22.0 16.6 1.1 25 9.7 SW 19 28 10 15 1015.4 1015.0 -
16/04:30pm 21.7 15.9 -0.3 23 9.9 WSW 20 30 11 16 1015.4 1015.0 -
16/04:00pm 22.4 17.2 0.3 23 10.1 SW 17 26 9 14 1015.4 1015.0 -
16/03:30pm 21.8 16.6 0.4 24 9.8 SSW 17 32 9 17 1015.4 1015.0 -
16/03:00pm 21.7 16.4 2.9 29 9.0 SSW 20 24 11 13 1015.7 1015.3 -
16/02:30pm 21.5 16.2 3.2 30 8.8 SSW 20 33 11 18 1015.8 1015.4 0.0
16/02:00pm 21.0 14.5 2.8 30 8.6 SSW 26 39 14 21 1016.4 1015.9 0.0

Other Formats:

Comma delimited format used in spreadsheet applications
http://www.bom.gov.au/fwo/IDN60801/IDN60801.95485.axf

JavaScript Object Notation format (JSON) in row-major order
http://www.bom.gov.au/fwo/IDN60801/IDN60801.95485.json